createdAt,value
2023-03-29T14:01:07.475Z,22.6238
2023-03-29T14:02:08.663Z,22.6838
2023-03-29T14:03:09.833Z,22.8062
2023-03-29T14:04:11.093Z,22.9169
2023-03-29T14:05:12.318Z,23.0231
2023-03-29T14:06:13.546Z,23.0992
2023-03-29T14:07:14.812Z,23.1608
2023-03-29T14:08:19.401Z,23.2446
2023-03-29T14:09:20.931Z,23.3258
2023-03-29T14:10:22.423Z,23.3908
2023-03-29T14:11:24.481Z,23.4615
2023-03-29T14:12:25.653Z,23.5273
2023-03-29T14:13:27.036Z,23.5865
2023-03-29T14:14:28.553Z,23.6385
2023-03-29T14:15:30.049Z,23.6819
2023-03-29T14:16:31.815Z,23.7296
2023-03-29T14:17:33.133Z,23.7712
2023-03-29T14:18:34.802Z,23.8238
2023-03-29T14:19:36.128Z,23.8550
2023-03-29T14:21:58.808Z,23.9373
2023-03-29T14:23:00.047Z,23.9812
2023-03-29T14:24:01.282Z,24.0308
2023-03-29T14:25:02.477Z,24.0650
2023-03-29T14:26:03.972Z,24.0919
2023-03-29T14:27:04.989Z,24.1204
2023-03-29T14:28:06.234Z,24.1477
2023-03-29T14:29:07.445Z,24.1865
2023-03-29T14:30:07.600Z,24.2146
2023-03-29T14:32:04.573Z,24.2835
2023-03-29T14:33:05.787Z,24.3238
2023-03-29T14:34:06.958Z,24.3542
2023-03-29T14:35:10.401Z,24.3700
2023-03-29T14:36:12.064Z,24.3654
2023-03-29T14:37:13.475Z,24.3577
2023-03-29T14:38:14.927Z,24.3727
2023-03-29T14:39:17.847Z,24.3850
2023-03-29T14:40:19.120Z,24.4008
2023-03-29T14:41:21.998Z,24.4054
2023-03-29T14:42:21.575Z,24.4135
2023-03-29T14:43:22.746Z,24.4581
2023-03-29T14:44:24.076Z,24.4919
2023-03-29T14:45:25.566Z,24.5177
2023-03-29T14:46:27.197Z,24.5392
2023-03-29T14:47:28.650Z,24.5638
2023-03-29T14:48:30.137Z,24.5785
2023-03-29T14:49:31.702Z,24.5773
2023-03-29T14:50:33.196Z,24.5604
2023-03-29T14:51:34.694Z,24.5631
2023-03-29T14:52:36.239Z,24.5604
2023-03-29T14:53:37.762Z,24.4750
2023-03-29T14:54:39.242Z,24.3977
2023-03-29T14:55:40.799Z,24.3612
2023-03-29T14:56:42.308Z,24.3438
2023-03-29T14:57:43.852Z,24.3265
2023-03-29T14:58:45.316Z,24.3535
2023-03-29T14:59:46.854Z,24.3804
2023-03-29T15:00:48.399Z,24.3858
2023-03-29T15:01:50.010Z,24.3865
2023-03-29T15:02:51.536Z,24.3746
2023-03-29T15:03:54.712Z,24.3688
2023-03-29T15:04:54.461Z,24.3704
2023-03-29T15:05:56.003Z,24.3619
2023-03-29T15:06:57.510Z,24.3585
2023-03-29T15:07:59.025Z,24.3535
2023-03-29T15:09:06.161Z,24.3423
2023-03-29T15:10:04.418Z,24.3385
2023-03-29T15:11:05.694Z,24.3300
2023-03-29T15:12:06.925Z,24.3150
2023-03-29T15:13:08.181Z,24.3112
2023-03-29T15:14:09.433Z,24.3054
2023-03-29T15:15:10.629Z,24.2808
2023-03-29T15:16:12.075Z,24.2604
2023-03-29T15:17:13.122Z,24.2512
2023-03-29T15:18:14.441Z,24.2404
2023-03-29T15:19:15.725Z,24.2285
2023-03-29T15:20:17.260Z,24.2065
2023-03-29T15:21:18.794Z,24.1873
2023-03-29T15:22:20.275Z,24.1712
2023-03-29T15:23:21.854Z,24.1585
2023-03-29T15:24:23.368Z,24.1504
2023-03-29T15:25:24.877Z,24.1396
2023-03-29T15:26:26.394Z,24.1308
2023-03-29T15:27:27.928Z,24.1254
2023-03-29T15:28:29.487Z,24.1177
2023-03-29T15:29:30.936Z,24.1065
2023-03-29T15:30:33.982Z,24.0954
2023-03-29T15:31:35.245Z,24.0754
2023-03-29T15:32:36.465Z,24.0715
2023-03-29T15:33:37.922Z,24.0546
2023-03-29T15:34:38.930Z,24.0508
2023-03-29T15:35:40.160Z,24.0392
2023-03-29T15:36:41.703Z,24.0362
2023-03-29T15:37:43.136Z,24.0169
2023-03-29T15:38:45.508Z,23.9877
2023-03-29T15:39:46.180Z,23.9762
2023-03-29T15:40:47.763Z,23.9650
2023-03-29T15:41:49.287Z,23.9573
2023-03-29T15:42:50.760Z,23.9285
2023-03-29T15:43:52.268Z,23.9046
2023-03-29T15:44:53.809Z,23.9081
2023-03-29T15:45:55.330Z,23.9115
2023-03-29T15:46:56.875Z,23.9108
2023-03-29T15:47:59.735Z,23.9019
2023-03-29T15:49:01.015Z,23.8992
2023-03-29T15:50:02.198Z,23.8931
2023-03-29T15:51:06.534Z,23.8777
2023-03-29T15:52:04.677Z,23.8727
2023-03-29T15:53:15.149Z,23.8688
2023-03-29T15:54:07.584Z,23.8800
2023-03-29T15:55:08.998Z,23.8827
2023-03-29T15:56:10.562Z,23.8700
2023-03-29T15:57:12.482Z,23.8627
2023-03-29T15:58:13.665Z,23.8558
2023-03-29T15:59:18.129Z,23.8438
2023-03-29T16:00:19.350Z,23.8415
2023-03-29T16:01:20.574Z,23.8531
2023-03-29T16:02:21.854Z,23.8585
2023-03-29T16:03:23.089Z,23.8531
2023-03-29T16:04:24.291Z,23.8458
2023-03-29T16:05:25.546Z,23.8481
2023-03-29T16:06:26.786Z,23.8485
2023-03-29T16:07:27.980Z,23.8515
2023-03-29T16:08:29.232Z,23.8465
2023-03-29T16:09:30.554Z,23.8358
2023-03-29T16:10:31.798Z,23.8369
2023-03-29T16:11:33.332Z,23.8262
2023-03-29T16:12:34.830Z,23.8008
2023-03-29T16:13:36.509Z,23.7965
2023-03-29T16:14:37.928Z,23.7942
2023-03-29T16:15:39.421Z,23.7769
2023-03-29T16:16:40.969Z,23.7523
2023-03-29T16:17:42.511Z,23.7331
2023-03-29T16:18:43.943Z,23.7246
2023-03-29T16:19:45.542Z,23.7138
2023-03-29T16:20:46.991Z,23.6965
2023-03-29T16:21:48.558Z,23.6885
2023-03-29T16:22:50.031Z,23.6746
2023-03-29T16:23:51.580Z,23.6392
2023-03-29T16:24:53.141Z,23.6235
2023-03-29T16:25:54.633Z,23.6062
2023-03-29T16:26:56.486Z,23.5992
2023-03-29T16:27:57.671Z,23.5988
2023-03-29T16:28:59.165Z,23.5865
2023-03-29T16:30:00.736Z,23.5723
2023-03-29T16:31:02.212Z,23.5665
2023-03-29T16:32:06.265Z,23.5635
2023-03-29T17:45:53.497Z,20.6073
2023-03-29T17:46:54.801Z,20.6512
2023-03-29T17:47:56.045Z,20.6800
2023-03-29T17:48:57.204Z,20.7092
2023-03-29T17:52:32.756Z,20.9023
2023-03-29T17:53:34.018Z,20.8577
2023-03-29T17:54:35.231Z,20.8304
2023-03-29T17:55:36.481Z,20.8019
2023-03-29T17:56:37.710Z,20.7804
2023-03-29T17:57:39.424Z,20.7681
2023-03-29T17:58:40.168Z,20.7631
2023-03-29T17:59:41.473Z,20.7577
2023-03-29T18:00:46.195Z,20.7519
2023-03-29T18:01:48.646Z,20.7508
2023-03-29T18:02:44.656Z,20.7608
2023-03-29T18:03:46.132Z,20.7662
2023-03-29T18:04:47.612Z,20.7758
2023-03-29T18:05:49.126Z,20.7812
2023-03-29T18:06:50.654Z,20.7877
2023-03-29T18:07:52.199Z,20.7954
2023-03-29T18:08:53.714Z,20.8077
2023-03-29T18:09:55.236Z,20.8138
2023-03-29T18:10:56.752Z,20.8200
2023-03-29T18:11:58.283Z,20.8281
2023-03-29T18:12:59.953Z,20.8385
2023-03-29T18:14:01.327Z,20.8515
2023-03-29T18:15:02.858Z,20.8585
2023-03-29T18:16:04.560Z,20.8727
2023-03-29T18:17:05.900Z,20.8827
2023-03-29T18:18:08.740Z,20.9131
2023-03-29T18:19:08.917Z,20.9581
2023-03-29T18:20:10.453Z,20.9712
2023-03-29T18:21:11.948Z,20.9746
2023-03-29T18:22:13.463Z,20.9742
2023-03-29T18:23:14.998Z,20.9742
2023-03-29T18:24:16.518Z,20.9792
2023-03-29T18:25:18.033Z,20.9650
2023-03-29T18:26:19.562Z,20.9738
2023-03-29T18:27:21.115Z,20.9654
2023-03-29T18:28:22.653Z,20.9646
2023-03-29T18:29:24.142Z,20.9527
2023-03-29T18:30:25.647Z,20.9469
2023-03-29T18:31:27.278Z,20.9408
2023-03-29T18:32:28.716Z,20.9431
2023-03-29T18:33:30.234Z,20.9415
2023-03-29T18:34:31.733Z,20.9415
2023-03-29T18:35:33.325Z,20.9446
2023-03-29T18:36:34.780Z,20.9400
2023-03-29T18:37:36.328Z,20.9408
2023-03-29T18:38:41.443Z,20.9423
2023-03-29T18:39:48.951Z,20.9396
2023-03-29T18:40:44.203Z,20.9433
2023-03-29T18:43:17.959Z,20.9350
2023-03-29T18:44:18.607Z,20.9358
2023-03-29T18:45:20.171Z,20.9300
2023-03-29T18:46:22.603Z,20.9292
2023-03-29T18:47:23.407Z,20.9208
2023-03-29T18:48:24.686Z,20.9196
2023-03-29T18:49:26.202Z,20.9165
2023-03-29T18:50:29.449Z,20.9142
2023-03-29T18:51:29.222Z,20.9112
2023-03-29T18:52:32.364Z,20.9081
2023-03-29T18:53:37.034Z,20.9096
2023-03-29T18:54:38.549Z,20.9081
2023-03-29T18:55:40.126Z,20.9065
2023-03-29T18:56:42.028Z,20.9077
2023-03-29T18:57:43.099Z,20.9054
2023-03-29T18:58:44.628Z,20.9012
2023-03-29T18:59:46.134Z,20.9031
2023-03-29T19:00:47.632Z,20.8988
2023-03-29T19:01:53.266Z,20.9046
2023-03-29T19:02:53.867Z,20.9046
2023-03-29T19:03:55.774Z,20.8969
2023-03-29T19:04:56.281Z,20.8869
2023-03-29T19:05:57.503Z,20.8873
2023-03-29T19:06:58.741Z,20.8888
2023-03-29T19:07:59.988Z,20.8900
2023-03-29T19:09:01.242Z,20.8892
2023-03-29T19:10:02.486Z,20.8765
2023-03-29T19:11:03.756Z,20.8731
2023-03-29T19:12:04.969Z,20.8746
2023-03-29T19:13:06.241Z,20.8738
2023-03-29T19:14:07.515Z,20.8700
2023-03-29T19:15:08.940Z,20.8696
2023-03-29T19:16:10.536Z,20.8658
2023-03-29T19:17:11.984Z,20.8650
2023-03-29T19:18:13.630Z,20.8708
2023-03-29T19:19:14.999Z,20.8704
2023-03-29T19:20:16.555Z,20.8715
2023-03-29T19:21:18.045Z,20.8635
2023-03-29T19:22:19.590Z,20.8600
2023-03-29T19:23:21.092Z,20.8546
2023-03-29T19:24:22.642Z,20.8577
2023-03-29T19:25:24.130Z,20.8512
2023-03-29T19:26:25.653Z,20.8492
2023-03-29T19:27:27.196Z,20.8438
2023-03-29T19:28:28.716Z,20.8458
2023-03-29T19:29:30.271Z,20.8442
2023-03-29T19:30:31.735Z,20.8400
2023-03-29T19:31:33.324Z,20.8369
2023-03-29T19:32:34.803Z,20.8362
2023-03-29T19:33:36.318Z,20.8308
2023-03-29T19:34:37.828Z,20.8269
2023-03-29T19:35:39.349Z,20.8246
2023-03-29T19:36:40.858Z,20.8196
2023-03-29T19:37:42.376Z,20.8181
2023-03-29T19:38:44.010Z,20.8146
2023-03-29T19:39:45.448Z,20.8108
2023-03-29T19:40:46.958Z,20.8112
2023-03-29T19:41:48.454Z,20.8119
2023-03-29T19:42:50.036Z,20.8065
2023-03-29T19:43:51.563Z,20.8038
2023-03-29T19:44:53.062Z,20.8062
2023-03-29T19:45:54.748Z,20.8027
2023-03-29T19:46:56.150Z,20.8081
2023-03-29T19:47:57.648Z,20.8031
2023-03-29T19:48:59.127Z,20.8000
2023-03-29T19:50:00.664Z,20.8046
2023-03-29T19:51:02.177Z,20.8050
2023-03-29T19:52:03.729Z,20.8031
2023-03-29T19:53:05.218Z,20.8015
2023-03-29T19:54:06.795Z,20.8000
2023-03-29T19:55:08.318Z,20.8031
2023-03-29T19:56:09.809Z,20.7946
2023-03-29T19:57:11.326Z,20.7908
2023-03-29T19:58:12.906Z,20.7938
2023-03-29T19:59:14.360Z,20.7962
2023-03-29T20:00:15.907Z,20.7842
2023-03-29T20:01:17.406Z,20.7862
2023-03-29T20:02:18.937Z,20.7900
2023-03-29T20:03:20.471Z,20.7896
2023-03-29T20:04:22.033Z,20.7823
2023-03-29T20:05:23.509Z,20.7758
2023-03-29T20:06:25.039Z,20.7727
2023-03-29T20:07:26.545Z,20.7677
2023-03-29T20:08:28.075Z,20.7642
2023-03-29T20:09:29.632Z,20.7642
2023-03-29T20:10:31.136Z,20.7688
2023-03-29T20:11:32.637Z,20.7665
2023-03-29T20:12:34.191Z,20.7596
2023-03-29T20:13:38.718Z,20.7558
2023-03-29T20:14:37.217Z,20.7577
2023-03-29T20:15:38.736Z,20.7619
2023-03-29T20:16:40.316Z,20.7550
2023-03-29T20:17:41.801Z,20.7508
2023-03-29T20:18:43.303Z,20.7550
2023-03-29T20:19:44.860Z,20.7565
2023-03-29T20:20:46.362Z,20.7523
2023-03-29T20:21:47.970Z,20.7473
2023-03-29T20:22:53.696Z,20.7423
2023-03-29T20:23:51.104Z,20.7431
2023-03-29T20:24:52.456Z,20.7369
2023-03-29T20:25:54.012Z,20.7342
2023-03-29T20:26:55.495Z,20.7304
2023-03-29T20:27:57.007Z,20.7231
2023-03-29T20:28:58.529Z,20.7215
2023-03-29T20:30:00.061Z,20.7142
2023-03-29T20:31:01.936Z,20.7092
2023-03-29T20:32:03.151Z,20.7062
2023-03-29T20:33:04.712Z,20.7035
2023-03-29T20:34:06.154Z,20.7038
2023-03-29T20:35:07.691Z,20.6992
2023-03-29T20:36:09.349Z,20.6915
2023-03-29T20:37:10.898Z,20.6935
2023-03-29T20:38:12.269Z,20.6927
2023-03-29T20:39:13.908Z,20.6862
2023-03-29T20:40:15.304Z,20.6862
2023-03-29T20:41:16.822Z,20.6881
2023-03-29T20:42:18.804Z,20.6788
2023-03-29T20:43:19.905Z,20.6746
2023-03-29T20:44:21.859Z,20.6800
2023-03-29T20:45:22.917Z,20.6823
2023-03-29T20:46:24.552Z,20.6885
2023-03-29T20:47:25.973Z,20.6969
2023-03-29T20:48:27.491Z,20.7038
2023-03-29T20:49:29.164Z,20.7085
2023-03-29T20:50:30.588Z,20.7173
2023-03-29T20:51:32.185Z,20.7150
2023-03-29T20:52:33.597Z,20.7188
2023-03-29T20:53:35.121Z,20.7315
2023-03-29T20:54:36.715Z,20.7415
2023-03-29T20:55:38.171Z,20.7431
2023-03-29T20:56:40.715Z,20.7415
2023-03-29T20:57:41.203Z,20.7408
2023-03-29T20:58:42.694Z,20.7535
2023-03-29T20:59:44.253Z,20.7662
2023-03-29T21:00:45.761Z,20.7831
2023-03-29T21:01:47.306Z,20.7854
2023-03-29T21:02:48.867Z,20.7946
2023-03-29T21:03:50.387Z,20.7981
2023-03-29T21:04:51.963Z,20.8058
2023-03-29T21:05:53.449Z,20.8127
2023-03-29T21:06:54.914Z,20.8223
2023-03-29T21:07:56.425Z,20.8296
2023-03-29T21:08:57.942Z,20.8342
2023-03-29T21:09:59.465Z,20.8319
2023-03-29T21:11:01.140Z,20.8412
2023-03-29T21:12:02.599Z,20.8500
2023-03-29T21:13:04.041Z,20.8496
2023-03-29T21:14:05.576Z,20.8550
2023-03-29T21:15:07.084Z,20.8519
2023-03-29T21:16:08.662Z,20.8550
2023-03-29T21:17:10.186Z,20.8558
2023-03-29T21:18:11.726Z,20.8573
2023-03-29T21:19:13.169Z,20.8615
2023-03-29T21:20:14.721Z,20.8588
2023-03-29T21:21:16.252Z,20.8615
2023-03-29T21:22:22.608Z,20.8619
2023-03-29T21:23:26.055Z,20.8619
2023-03-29T21:24:29.520Z,20.8650
2023-03-29T21:25:29.615Z,20.8673
2023-03-29T21:26:30.525Z,20.8669
2023-03-29T21:27:31.555Z,20.8731
2023-03-29T21:28:33.153Z,20.8700
2023-03-29T21:29:35.434Z,20.8662
2023-03-29T21:30:36.752Z,20.8650
2023-03-29T21:31:37.276Z,20.8688
2023-03-29T21:32:37.783Z,20.8738
2023-03-29T21:33:40.801Z,20.8712
2023-03-29T21:34:41.452Z,20.8665
2023-03-29T21:35:42.447Z,20.8681
2023-03-29T21:36:43.835Z,20.8646
2023-03-29T21:37:45.334Z,20.8650
2023-03-29T21:38:46.943Z,20.8646
2023-03-29T21:39:49.518Z,20.8735
2023-03-29T21:40:50.022Z,20.8746
2023-03-29T21:41:51.422Z,20.8700
2023-03-29T21:42:52.945Z,20.8692
2023-03-29T21:43:54.475Z,20.8642
2023-03-29T21:44:56.012Z,20.8600
2023-03-29T21:45:57.613Z,20.8585
2023-03-29T21:46:59.133Z,20.8550
2023-03-29T21:48:00.647Z,20.8508
2023-03-29T21:49:02.162Z,20.8662
2023-03-29T21:50:03.652Z,20.8608
2023-03-29T21:51:05.446Z,20.8662
2023-03-29T21:52:06.683Z,20.8642
2023-03-29T21:53:08.693Z,20.8608
2023-03-29T21:54:10.267Z,20.8560
2023-03-29T22:06:32.735Z,20.8527
2023-03-29T22:06:32.735Z,20.8488
2023-03-29T22:07:24.827Z,20.8217
2023-03-29T22:08:26.439Z,20.8204
2023-03-29T22:09:27.887Z,20.8146
2023-03-29T22:10:29.432Z,20.8135
2023-03-29T22:11:31.866Z,20.8185
2023-03-29T22:12:32.473Z,20.8204
2023-03-29T22:13:33.981Z,20.8223
2023-03-29T22:14:36.243Z,20.8223
2023-03-29T22:15:37.009Z,20.8200
2023-03-29T22:16:40.956Z,20.8162
2023-03-29T22:17:41.513Z,20.8138
2023-03-29T22:18:42.765Z,20.8085
2023-03-29T22:19:43.946Z,20.8050
2023-03-29T22:20:45.197Z,20.7969
2023-03-29T22:21:46.423Z,20.8019
2023-03-29T22:22:47.808Z,20.8050
2023-03-29T22:23:49.187Z,20.8092
2023-03-29T22:24:51.888Z,20.8108
2023-03-29T22:25:52.237Z,20.8123
2023-03-29T22:26:53.742Z,20.8088
2023-03-29T22:27:55.312Z,20.8096
2023-03-29T22:28:57.378Z,20.8073
2023-03-29T22:29:58.348Z,20.8046
2023-03-29T22:31:00.288Z,20.8031
2023-03-29T22:32:01.474Z,20.7969
2023-03-29T22:33:02.984Z,20.7923
2023-03-29T22:34:04.503Z,20.7950
2023-03-29T22:35:05.942Z,20.7931
2023-03-29T22:36:07.457Z,20.7985
2023-03-29T22:37:08.978Z,20.7981
2023-03-29T22:38:10.503Z,20.7973
2023-03-29T22:39:12.038Z,20.8004
2023-03-29T22:40:13.558Z,20.7946
2023-03-29T22:41:15.071Z,20.8031
2023-03-29T22:42:16.609Z,20.7992
2023-03-29T22:43:18.140Z,20.7977
2023-03-29T22:44:19.640Z,20.8035
2023-03-29T22:45:21.206Z,20.8065
2023-03-29T22:46:22.777Z,20.8088
2023-03-29T22:47:24.240Z,20.8069
2023-03-29T22:48:25.709Z,20.8058
2023-03-29T22:49:27.257Z,20.8081
2023-03-29T22:50:28.769Z,20.8104
2023-03-29T22:51:30.301Z,20.8127
2023-03-29T22:52:31.852Z,20.8150
2023-03-29T22:53:33.376Z,20.8188
2023-03-29T22:54:34.864Z,20.8223
2023-03-29T22:55:36.375Z,20.8162
2023-03-29T22:56:37.997Z,20.8181
2023-03-29T22:57:39.472Z,20.8173
2023-03-29T22:58:40.988Z,20.8196
2023-03-29T22:59:42.493Z,20.8188
2023-03-29T23:00:44.019Z,20.8169
2023-03-29T23:01:45.514Z,20.8154
2023-03-29T23:02:47.031Z,20.8108
2023-03-29T23:03:48.595Z,20.8096
2023-03-29T23:04:50.222Z,20.8015
2023-03-29T23:05:51.587Z,20.7915
2023-03-29T23:06:53.193Z,20.7873
2023-03-29T23:07:54.624Z,20.7831
2023-03-29T23:08:56.170Z,20.7773
2023-03-29T23:09:57.723Z,20.7754
2023-03-29T23:10:59.188Z,20.7650
2023-03-29T23:12:00.854Z,20.7638
2023-03-29T23:13:02.224Z,20.7581
2023-03-29T23:14:03.744Z,20.7600
2023-03-29T23:15:05.304Z,20.7546
2023-03-29T23:16:06.889Z,20.7496
2023-03-29T23:17:08.307Z,20.7477
2023-03-29T23:18:09.852Z,20.7469
2023-03-29T23:19:11.347Z,20.7377
2023-03-29T23:20:12.938Z,20.7288
2023-03-29T23:21:14.397Z,20.7219
2023-03-29T23:22:15.951Z,20.7119
2023-03-29T23:23:17.438Z,20.7050
2023-03-29T23:24:19.323Z,20.6985
2023-03-29T23:25:20.490Z,20.6965
2023-03-29T23:26:22.003Z,20.6892
2023-03-29T23:27:23.576Z,20.6812
2023-03-29T23:28:25.069Z,20.6792
2023-03-29T23:29:26.567Z,20.6742
2023-03-29T23:30:28.108Z,20.6677
2023-03-29T23:31:29.657Z,20.6658
2023-03-29T23:32:31.165Z,20.6631
2023-03-29T23:33:32.689Z,20.6588
2023-03-29T23:34:34.185Z,20.6581
2023-03-29T23:35:35.773Z,20.6512
2023-03-29T23:36:37.233Z,20.6469
2023-03-29T23:37:38.799Z,20.6450
2023-03-29T23:38:40.262Z,20.6435
2023-03-29T23:39:41.826Z,20.6381
2023-03-29T23:40:43.316Z,20.6362
2023-03-29T23:41:44.915Z,20.6327
2023-03-29T23:42:46.384Z,20.6312
2023-03-29T23:43:47.913Z,20.6281
2023-03-29T23:44:49.402Z,20.6273
2023-03-29T23:45:51.083Z,20.6292
2023-03-29T23:46:52.541Z,20.6288
2023-03-29T23:47:54.025Z,20.6281
2023-03-29T23:48:55.554Z,20.6262
2023-03-29T23:49:57.016Z,20.6235
2023-03-29T23:50:59.616Z,20.6208
2023-03-29T23:52:00.077Z,20.6208
2023-03-29T23:53:01.560Z,20.6169
2023-03-29T23:54:03.120Z,20.6150
2023-03-29T23:55:04.595Z,20.6112
2023-03-29T23:56:06.139Z,20.6054
2023-03-29T23:57:07.757Z,20.6050
2023-03-29T23:58:09.156Z,20.6027
2023-03-29T23:59:10.741Z,20.6058
